sensor_id;sensor_type;location;lat;lon;timestamp;pressure;altitude;pressure_sealevel;temperature;humidity
69058;BME280;56128;37.534;-122.308;2024-02-26T00:00:47;101420.28;;;16.26;100.00
69058;BME280;56128;37.534;-122.308;2024-02-26T00:03:13;101427.41;;;16.27;100.00
69058;BME280;56128;37.534;-122.308;2024-02-26T00:05:39;101430.66;;;16.21;100.00
69058;BME280;56128;37.534;-122.308;2024-02-26T00:08:05;101442.00;;;16.15;100.00
69058;BME280;56128;37.534;-122.308;2024-02-26T00:10:32;101445.53;;;16.05;100.00
69058;BME280;56128;37.534;-122.308;2024-02-26T00:12:58;101447.50;;;16.03;100.00
69058;BME280;56128;37.534;-122.308;2024-02-26T00:15:24;101449.31;;;15.93;100.00
69058;BME280;56128;37.534;-122.308;2024-02-26T00:17:50;101450.13;;;15.84;100.00
69058;BME280;56128;37.534;-122.308;2024-02-26T00:20:16;101447.06;;;15.77;100.00
69058;BME280;56128;37.534;-122.308;2024-02-26T00:22:42;101449.75;;;15.77;100.00
69058;BME280;56128;37.534;-122.308;2024-02-26T00:25:09;101449.16;;;15.73;100.00
69058;BME280;56128;37.534;-122.308;2024-02-26T00:27:35;101461.31;;;15.58;100.00
69058;BME280;56128;37.534;-122.308;2024-02-26T00:30:01;101459.13;;;15.52;100.00
69058;BME280;56128;37.534;-122.308;2024-02-26T00:32:27;101462.72;;;15.52;100.00
69058;BME280;56128;37.534;-122.308;2024-02-26T00:34:53;101468.03;;;15.42;100.00
69058;BME280;56128;37.534;-122.308;2024-02-26T00:37:19;101467.81;;;15.34;100.00
69058;BME280;56128;37.534;-122.308;2024-02-26T00:39:46;101471.91;;;15.29;100.00
69058;BME280;56128;37.534;-122.308;2024-02-26T00:42:12;101466.13;;;15.12;100.00
69058;BME280;56128;37.534;-122.308;2024-02-26T00:44:38;101468.22;;;15.08;100.00
69058;BME280;56128;37.534;-122.308;2024-02-26T00:47:04;101471.56;;;14.89;100.00
69058;BME280;56128;37.534;-122.308;2024-02-26T00:49:30;101467.34;;;14.75;100.00
69058;BME280;56128;37.534;-122.308;2024-02-26T00:51:56;101470.78;;;14.66;100.00
69058;BME280;56128;37.534;-122.308;2024-02-26T00:54:22;101471.28;;;14.60;100.00
69058;BME280;56128;37.534;-122.308;2024-02-26T00:56:49;101468.47;;;14.50;100.00
69058;BME280;56128;37.534;-122.308;2024-02-26T00:59:15;101474.00;;;14.49;100.00
69058;BME280;56128;37.534;-122.308;2024-02-26T01:01:41;101461.66;;;14.35;100.00
69058;BME280;56128;37.534;-122.308;2024-02-26T01:04:07;101455.66;;;14.31;100.00
69058;BME280;56128;37.534;-122.308;2024-02-26T01:06:33;101461.81;;;14.22;100.00
69058;BME280;56128;37.534;-122.308;2024-02-26T01:08:59;101474.53;;;14.08;100.00
69058;BME280;56128;37.534;-122.308;2024-02-26T01:11:26;101469.38;;;14.05;100.00
69058;BME280;56128;37.534;-122.308;2024-02-26T01:13:52;101467.56;;;13.94;100.00
69058;BME280;56128;37.534;-122.308;2024-02-26T01:16:23;101454.44;;;13.90;100.00
69058;BME280;56128;37.534;-122.308;2024-02-26T01:18:49;101460.56;;;13.80;100.00
69058;BME280;56128;37.534;-122.308;2024-02-26T01:21:15;101464.84;;;13.72;100.00
69058;BME280;56128;37.534;-122.308;2024-02-26T01:23:42;101458.97;;;13.67;100.00
69058;BME280;56128;37.534;-122.308;2024-02-26T01:26:08;101458.56;;;13.60;100.00
69058;BME280;56128;37.534;-122.308;2024-02-26T01:28:34;101458.56;;;13.48;100.00
69058;BME280;56128;37.534;-122.308;2024-02-26T01:31:00;101455.50;;;13.42;100.00
69058;BME280;56128;37.534;-122.308;2024-02-26T01:33:26;101454.47;;;13.31;100.00
69058;BME280;56128;37.534;-122.308;2024-02-26T01:35:53;101457.25;;;13.30;100.00
69058;BME280;56128;37.534;-122.308;2024-02-26T01:38:19;101454.31;;;13.22;100.00
69058;BME280;56128;37.534;-122.308;2024-02-26T01:40:45;101450.25;;;13.16;100.00
69058;BME280;56128;37.534;-122.308;2024-02-26T01:43:11;101453.41;;;13.10;100.00
69058;BME280;56128;37.534;-122.308;2024-02-26T01:45:37;101459.88;;;13.07;100.00
69058;BME280;56128;37.534;-122.308;2024-02-26T01:48:04;101470.22;;;13.01;100.00
69058;BME280;56128;37.534;-122.308;2024-02-26T01:50:30;101471.78;;;12.92;100.00
69058;BME280;56128;37.534;-122.308;2024-02-26T01:52:57;101464.81;;;12.89;100.00
69058;BME280;56128;37.534;-122.308;2024-02-26T01:55:24;101467.84;;;12.85;100.00
69058;BME280;56128;37.534;-122.308;2024-02-26T01:57:52;101481.50;;;12.81;100.00
69058;BME280;56128;37.534;-122.308;2024-02-26T02:00:18;101497.00;;;12.78;100.00
69058;BME280;56128;37.534;-122.308;2024-02-26T02:02:45;101489.25;;;12.73;100.00
69058;BME280;56128;37.534;-122.308;2024-02-26T02:05:16;101497.31;;;12.73;100.00
69058;BME280;56128;37.534;-122.308;2024-02-26T02:07:43;101506.78;;;12.66;100.00
69058;BME280;56128;37.534;-122.308;2024-02-26T02:10:10;101507.47;;;12.57;100.00
69058;BME280;56128;37.534;-122.308;2024-02-26T02:12:36;101508.56;;;12.54;100.00
69058;BME280;56128;37.534;-122.308;2024-02-26T02:15:06;101514.88;;;12.53;100.00
69058;BME280;56128;37.534;-122.308;2024-02-26T02:17:32;101513.28;;;12.50;100.00
69058;BME280;56128;37.534;-122.308;2024-02-26T02:19:58;101517.16;;;12.46;100.00
69058;BME280;56128;37.534;-122.308;2024-02-26T02:22:25;101518.97;;;12.46;100.00
69058;BME280;56128;37.534;-122.308;2024-02-26T02:24:52;101529.53;;;12.36;100.00
69058;BME280;56128;37.534;-122.308;2024-02-26T02:27:20;101537.03;;;12.31;100.00
69058;BME280;56128;37.534;-122.308;2024-02-26T02:29:47;101530.81;;;12.30;100.00
69058;BME280;56128;37.534;-122.308;2024-02-26T02:32:14;101540.38;;;12.34;100.00
69058;BME280;56128;37.534;-122.308;2024-02-26T02:34:41;101546.59;;;12.35;100.00
69058;BME280;56128;37.534;-122.308;2024-02-26T02:37:08;101537.38;;;12.26;100.00
69058;BME280;56128;37.534;-122.308;2024-02-26T02:39:34;101533.19;;;12.22;100.00
69058;BME280;56128;37.534;-122.308;2024-02-26T02:42:00;101533.53;;;12.17;100.00
69058;BME280;56128;37.534;-122.308;2024-02-26T02:44:26;101540.06;;;12.13;100.00
69058;BME280;56128;37.534;-122.308;2024-02-26T02:46:52;101532.78;;;12.15;100.00
69058;BME280;56128;37.534;-122.308;2024-02-26T02:49:19;101531.56;;;12.20;100.00
69058;BME280;56128;37.534;-122.308;2024-02-26T02:51:45;101524.06;;;12.12;100.00
69058;BME280;56128;37.534;-122.308;2024-02-26T02:54:11;101525.16;;;12.09;100.00
69058;BME280;56128;37.534;-122.308;2024-02-26T02:56:37;101517.34;;;12.06;100.00
69058;BME280;56128;37.534;-122.308;2024-02-26T02:59:03;101528.38;;;12.01;100.00
69058;BME280;56128;37.534;-122.308;2024-02-26T03:01:30;101531.28;;;11.98;100.00
69058;BME280;56128;37.534;-122.308;2024-02-26T03:03:56;101541.91;;;12.00;100.00
69058;BME280;56128;37.534;-122.308;2024-02-26T03:06:22;101533.97;;;11.98;100.00
69058;BME280;56128;37.534;-122.308;2024-02-26T03:08:48;101540.41;;;11.96;100.00
69058;BME280;56128;37.534;-122.308;2024-02-26T03:11:15;101553.22;;;11.91;100.00
69058;BME280;56128;37.534;-122.308;2024-02-26T03:13:41;101554.00;;;11.93;100.00
69058;BME280;56128;37.534;-122.308;2024-02-26T03:16:08;101558.81;;;11.88;100.00
69058;BME280;56128;37.534;-122.308;2024-02-26T03:18:34;101558.06;;;11.85;100.00
69058;BME280;56128;37.534;-122.308;2024-02-26T03:21:00;101557.22;;;11.85;100.00
69058;BME280;56128;37.534;-122.308;2024-02-26T03:23:26;101566.22;;;11.84;100.00
69058;BME280;56128;37.534;-122.308;2024-02-26T03:25:52;101570.06;;;11.80;100.00
69058;BME280;56128;37.534;-122.308;2024-02-26T03:28:18;101574.03;;;11.74;100.00
69058;BME280;56128;37.534;-122.308;2024-02-26T03:30:45;101566.75;;;11.76;100.00
69058;BME280;56128;37.534;-122.308;2024-02-26T03:33:11;101563.53;;;11.71;100.00
69058;BME280;56128;37.534;-122.308;2024-02-26T03:35:37;101562.44;;;11.74;100.00
69058;BME280;56128;37.534;-122.308;2024-02-26T03:38:03;101567.81;;;11.74;100.00
69058;BME280;56128;37.534;-122.308;2024-02-26T03:40:29;101563.72;;;11.68;100.00
69058;BME280;56128;37.534;-122.308;2024-02-26T03:42:56;101561.44;;;11.62;100.00
69058;BME280;56128;37.534;-122.308;2024-02-26T03:45:23;101571.22;;;11.63;100.00
69058;BME280;56128;37.534;-122.308;2024-02-26T03:47:49;101564.34;;;11.59;100.00
69058;BME280;56128;37.534;-122.308;2024-02-26T03:50:15;101573.56;;;11.55;100.00
69058;BME280;56128;37.534;-122.308;2024-02-26T03:52:42;101565.94;;;11.48;100.00
69058;BME280;56128;37.534;-122.308;2024-02-26T03:55:08;101564.41;;;11.44;100.00
69058;BME280;56128;37.534;-122.308;2024-02-26T03:57:36;101551.34;;;11.40;100.00
69058;BME280;56128;37.534;-122.308;2024-02-26T04:00:02;101557.75;;;11.37;100.00
69058;BME280;56128;37.534;-122.308;2024-02-26T04:02:29;101555.50;;;11.31;100.00
69058;BME280;56128;37.534;-122.308;2024-02-26T04:04:55;101558.38;;;11.28;100.00
69058;BME280;56128;37.534;-122.308;2024-02-26T04:07:21;101559.44;;;11.25;100.00
69058;BME280;56128;37.534;-122.308;2024-02-26T04:09:47;101558.03;;;11.19;100.00
69058;BME280;56128;37.534;-122.308;2024-02-26T04:12:13;101556.59;;;11.14;100.00
69058;BME280;56128;37.534;-122.308;2024-02-26T04:14:40;101569.47;;;11.21;100.00
69058;BME280;56128;37.534;-122.308;2024-02-26T04:17:06;101570.66;;;11.17;100.00
69058;BME280;56128;37.534;-122.308;2024-02-26T04:19:32;101572.56;;;11.15;100.00
69058;BME280;56128;37.534;-122.308;2024-02-26T04:21:59;101573.63;;;11.13;100.00
69058;BME280;56128;37.534;-122.308;2024-02-26T04:24:25;101572.56;;;11.15;100.00
69058;BME280;56128;37.534;-122.308;2024-02-26T04:26:51;101568.28;;;11.13;100.00
69058;BME280;56128;37.534;-122.308;2024-02-26T04:29:18;101572.41;;;11.04;100.00
69058;BME280;56128;37.534;-122.308;2024-02-26T04:31:44;101577.44;;;10.96;100.00
69058;BME280;56128;37.534;-122.308;2024-02-26T04:34:11;101569.78;;;10.90;100.00
69058;BME280;56128;37.534;-122.308;2024-02-26T04:36:37;101571.81;;;10.86;100.00
69058;BME280;56128;37.534;-122.308;2024-02-26T04:39:04;101573.91;;;10.81;100.00
69058;BME280;56128;37.534;-122.308;2024-02-26T04:41:30;101582.13;;;10.78;100.00
69058;BME280;56128;37.534;-122.308;2024-02-26T04:43:56;101592.09;;;10.76;100.00
69058;BME280;56128;37.534;-122.308;2024-02-26T04:46:22;101595.16;;;10.69;100.00
69058;BME280;56128;37.534;-122.308;2024-02-26T04:48:48;101603.38;;;10.66;100.00
69058;BME280;56128;37.534;-122.308;2024-02-26T04:51:15;101609.78;;;10.64;100.00
69058;BME280;56128;37.534;-122.308;2024-02-26T04:53:41;101601.97;;;10.61;100.00
69058;BME280;56128;37.534;-122.308;2024-02-26T04:56:07;101603.19;;;10.55;100.00
69058;BME280;56128;37.534;-122.308;2024-02-26T04:58:33;101609.59;;;10.52;100.00
69058;BME280;56128;37.534;-122.308;2024-02-26T05:00:59;101605.41;;;10.48;100.00
69058;BME280;56128;37.534;-122.308;2024-02-26T05:03:25;101619.06;;;10.44;100.00
69058;BME280;56128;37.534;-122.308;2024-02-26T05:05:52;101616.69;;;10.39;100.00
69058;BME280;56128;37.534;-122.308;2024-02-26T05:08:18;101624.94;;;10.34;100.00
69058;BME280;56128;37.534;-122.308;2024-02-26T05:10:45;101631.34;;;10.32;100.00
69058;BME280;56128;37.534;-122.308;2024-02-26T05:13:11;101622.75;;;10.27;100.00
69058;BME280;56128;37.534;-122.308;2024-02-26T05:15:37;101630.19;;;10.21;100.00
69058;BME280;56128;37.534;-122.308;2024-02-26T05:18:04;101633.81;;;10.20;100.00
69058;BME280;56128;37.534;-122.308;2024-02-26T05:20:30;101632.47;;;10.13;100.00
69058;BME280;56128;37.534;-122.308;2024-02-26T05:22:56;101639.03;;;10.07;100.00
69058;BME280;56128;37.534;-122.308;2024-02-26T05:25:24;101639.44;;;10.01;100.00
69058;BME280;56128;37.534;-122.308;2024-02-26T05:27:50;101654.78;;;9.98;100.00
69058;BME280;56128;37.534;-122.308;2024-02-26T05:30:17;101650.75;;;9.90;100.00
69058;BME280;56128;37.534;-122.308;2024-02-26T05:32:43;101653.59;;;9.87;100.00
69058;BME280;56128;37.534;-122.308;2024-02-26T05:35:09;101651.22;;;9.83;100.00
69058;BME280;56128;37.534;-122.308;2024-02-26T05:37:35;101654.84;;;9.82;100.00
69058;BME280;56128;37.534;-122.308;2024-02-26T05:40:01;101663.78;;;9.81;100.00
69058;BME280;56128;37.534;-122.308;2024-02-26T05:42:30;101659.03;;;9.86;100.00
69058;BME280;56128;37.534;-122.308;2024-02-26T05:44:56;101666.22;;;9.85;100.00
69058;BME280;56128;37.534;-122.308;2024-02-26T05:47:22;101676.22;;;9.82;100.00
69058;BME280;56128;37.534;-122.308;2024-02-26T05:49:48;101665.88;;;9.75;100.00
69058;BME280;56128;37.534;-122.308;2024-02-26T05:52:15;101664.47;;;9.84;100.00
69058;BME280;56128;37.534;-122.308;2024-02-26T05:54:41;101663.69;;;9.82;100.00
69058;BME280;56128;37.534;-122.308;2024-02-26T05:57:07;101674.00;;;9.74;100.00
69058;BME280;56128;37.534;-122.308;2024-02-26T05:59:33;101673.47;;;9.67;100.00
69058;BME280;56128;37.534;-122.308;2024-02-26T06:01:59;101678.81;;;9.67;100.00
69058;BME280;56128;37.534;-122.308;2024-02-26T06:04:25;101675.28;;;9.67;100.00
69058;BME280;56128;37.534;-122.308;2024-02-26T06:06:51;101676.81;;;9.71;100.00
69058;BME280;56128;37.534;-122.308;2024-02-26T06:09:17;101678.41;;;9.75;100.00
69058;BME280;56128;37.534;-122.308;2024-02-26T06:11:43;101680.19;;;9.74;100.00
69058;BME280;56128;37.534;-122.308;2024-02-26T06:14:09;101677.06;;;9.82;100.00
69058;BME280;56128;37.534;-122.308;2024-02-26T06:16:37;101684.03;;;9.85;100.00
69058;BME280;56128;37.534;-122.308;2024-02-26T06:19:03;101681.94;;;9.90;100.00
69058;BME280;56128;37.534;-122.308;2024-02-26T06:21:29;101679.22;;;9.91;100.00
69058;BME280;56128;37.534;-122.308;2024-02-26T06:23:55;101682.47;;;9.97;100.00
69058;BME280;56128;37.534;-122.308;2024-02-26T06:26:21;101684.09;;;9.99;100.00
69058;BME280;56128;37.534;-122.308;2024-02-26T06:28:47;101684.78;;;10.03;100.00
69058;BME280;56128;37.534;-122.308;2024-02-26T06:31:14;101681.75;;;10.09;100.00
69058;BME280;56128;37.534;-122.308;2024-02-26T06:33:40;101678.97;;;10.11;100.00
69058;BME280;56128;37.534;-122.308;2024-02-26T06:36:06;101680.78;;;10.10;100.00
69058;BME280;56128;37.534;-122.308;2024-02-26T06:38:33;101675.63;;;10.07;100.00
69058;BME280;56128;37.534;-122.308;2024-02-26T06:40:59;101674.84;;;10.05;100.00
69058;BME280;56128;37.534;-122.308;2024-02-26T06:43:25;101672.16;;;10.05;100.00
69058;BME280;56128;37.534;-122.308;2024-02-26T06:45:51;101680.38;;;10.02;100.00
69058;BME280;56128;37.534;-122.308;2024-02-26T06:48:17;101679.44;;;10.03;100.00
69058;BME280;56128;37.534;-122.308;2024-02-26T06:50:43;101683.06;;;10.02;100.00
69058;BME280;56128;37.534;-122.308;2024-02-26T06:53:10;101684.78;;;10.03;100.00
69058;BME280;56128;37.534;-122.308;2024-02-26T06:55:36;101679.44;;;10.03;100.00
69058;BME280;56128;37.534;-122.308;2024-02-26T06:58:06;101679.25;;;10.06;100.00
69058;BME280;56128;37.534;-122.308;2024-02-26T07:00:32;101680.88;;;10.08;100.00
69058;BME280;56128;37.534;-122.308;2024-02-26T07:02:58;101681.81;;;10.07;100.00
69058;BME280;56128;37.534;-122.308;2024-02-26T07:05:24;101683.53;;;10.08;100.00
69058;BME280;56128;37.534;-122.308;2024-02-26T07:07:50;101676.41;;;10.09;100.00
69058;BME280;56128;37.534;-122.308;2024-02-26T07:10:16;101679.06;;;10.09;100.00
69058;BME280;56128;37.534;-122.308;2024-02-26T07:12:43;101683.53;;;10.08;100.00
69058;BME280;56128;37.534;-122.308;2024-02-26T07:15:09;101680.97;;;10.07;100.00
69058;BME280;56128;37.534;-122.308;2024-02-26T07:17:36;101678.41;;;10.05;100.00
69058;BME280;56128;37.534;-122.308;2024-02-26T07:20:02;101684.78;;;10.03;100.00
69058;BME280;56128;37.534;-122.308;2024-02-26T07:22:31;101675.19;;;9.99;100.00
69058;BME280;56128;37.534;-122.308;2024-02-26T07:24:57;101678.91;;;9.96;100.00
69058;BME280;56128;37.534;-122.308;2024-02-26T07:27:23;101684.38;;;9.95;100.00
69058;BME280;56128;37.534;-122.308;2024-02-26T07:29:50;101681.69;;;9.95;100.00
69058;BME280;56128;37.534;-122.308;2024-02-26T07:32:16;101681.78;;;9.93;100.00
69058;BME280;56128;37.534;-122.308;2024-02-26T07:34:42;101680.94;;;9.93;100.00
69058;BME280;56128;37.534;-122.308;2024-02-26T07:37:11;101674.63;;;9.94;100.00
69058;BME280;56128;37.534;-122.308;2024-02-26T07:39:37;101667.38;;;9.96;100.00
69058;BME280;56128;37.534;-122.308;2024-02-26T07:42:03;101660.31;;;9.95;100.00
69058;BME280;56128;37.534;-122.308;2024-02-26T07:44:29;101678.06;;;9.96;100.00
69058;BME280;56128;37.534;-122.308;2024-02-26T07:46:56;101678.06;;;9.96;100.00
69058;BME280;56128;37.534;-122.308;2024-02-26T07:49:22;101674.09;;;10.03;100.00
69058;BME280;56128;37.534;-122.308;2024-02-26T07:51:48;101668.75;;;10.03;100.00
69058;BME280;56128;37.534;-122.308;2024-02-26T07:54:14;101670.28;;;10.07;100.00
69058;BME280;56128;37.534;-122.308;2024-02-26T07:56:42;101666.66;;;10.08;100.00
69058;BME280;56128;37.534;-122.308;2024-02-26T07:59:08;101658.53;;;10.10;100.00
69058;BME280;56128;37.534;-122.308;2024-02-26T08:01:35;101655.00;;;10.09;100.00
69058;BME280;56128;37.534;-122.308;2024-02-26T08:04:04;101656.63;;;10.12;100.00
69058;BME280;56128;37.534;-122.308;2024-02-26T08:06:30;101662.84;;;10.12;100.00
69058;BME280;56128;37.534;-122.308;2024-02-26T08:08:56;101645.94;;;10.12;100.00
69058;BME280;56128;37.534;-122.308;2024-02-26T08:11:22;101647.00;;;10.09;100.00
69058;BME280;56128;37.534;-122.308;2024-02-26T08:13:49;101646.47;;;10.02;100.00
69058;BME280;56128;37.534;-122.308;2024-02-26T08:16:15;101653.06;;;9.97;100.00
69058;BME280;56128;37.534;-122.308;2024-02-26T08:18:41;101659.56;;;9.93;100.00
69058;BME280;56128;37.534;-122.308;2024-02-26T08:21:07;101658.78;;;9.90;100.00
69058;BME280;56128;37.534;-122.308;2024-02-26T08:23:34;101657.31;;;9.85;100.00
69058;BME280;56128;37.534;-122.308;2024-02-26T08:26:00;101655.00;;;9.79;100.00
69058;BME280;56128;37.534;-122.308;2024-02-26T08:28:26;101655.09;;;9.77;100.00
69058;BME280;56128;37.534;-122.308;2024-02-26T08:30:52;101650.69;;;9.76;100.00
69058;BME280;56128;37.534;-122.308;2024-02-26T08:33:19;101649.00;;;9.75;100.00
69058;BME280;56128;37.534;-122.308;2024-02-26T08:35:45;101647.63;;;9.68;100.00
69058;BME280;56128;37.534;-122.308;2024-02-26T08:38:11;101653.31;;;9.62;100.00
69058;BME280;56128;37.534;-122.308;2024-02-26T08:40:37;101651.94;;;9.54;100.00
69058;BME280;56128;37.534;-122.308;2024-02-26T08:43:03;101654.97;;;9.48;100.00
69058;BME280;56128;37.534;-122.308;2024-02-26T08:45:29;101637.50;;;9.42;100.00
69058;BME280;56128;37.534;-122.308;2024-02-26T08:47:55;101645.78;;;9.38;100.00
69058;BME280;56128;37.534;-122.308;2024-02-26T08:50:21;101638.19;;;9.30;100.00
69058;BME280;56128;37.534;-122.308;2024-02-26T08:52:48;101640.19;;;9.26;100.00
69058;BME280;56128;37.534;-122.308;2024-02-26T08:55:16;101644.91;;;9.21;100.00
69058;BME280;56128;37.534;-122.308;2024-02-26T08:57:43;101638.09;;;9.16;100.00
69058;BME280;56128;37.534;-122.308;2024-02-26T09:00:09;101636.66;;;9.10;100.00
69058;BME280;56128;37.534;-122.308;2024-02-26T09:02:36;101642.34;;;9.04;100.00
69058;BME280;56128;37.534;-122.308;2024-02-26T09:05:05;101645.25;;;8.99;100.00
69058;BME280;56128;37.534;-122.308;2024-02-26T09:07:31;101643.72;;;8.95;100.00
69058;BME280;56128;37.534;-122.308;2024-02-26T09:09:57;101644.41;;;8.99;100.00
69058;BME280;56128;37.534;-122.308;2024-02-26T09:12:24;101646.03;;;9.01;100.00
69058;BME280;56128;37.534;-122.308;2024-02-26T09:14:50;101658.16;;;9.07;100.00
69058;BME280;56128;37.534;-122.308;2024-02-26T09:17:16;101645.41;;;9.12;100.00
69058;BME280;56128;37.534;-122.308;2024-02-26T09:19:42;101649.38;;;9.21;100.00
69058;BME280;56128;37.534;-122.308;2024-02-26T09:22:09;101636.56;;;9.28;100.00
69058;BME280;56128;37.534;-122.308;2024-02-26T09:24:36;101640.69;;;9.33;100.00
69058;BME280;56128;37.534;-122.308;2024-02-26T09:27:02;101627.06;;;9.38;100.00
69058;BME280;56128;37.534;-122.308;2024-02-26T09:29:28;101626.81;;;9.42;100.00
69058;BME280;56128;37.534;-122.308;2024-02-26T09:31:54;101627.50;;;9.46;100.00
69058;BME280;56128;37.534;-122.308;2024-02-26T09:34:21;101621.13;;;9.49;100.00
69058;BME280;56128;37.534;-122.308;2024-02-26T09:36:47;101622.75;;;9.51;100.00
69058;BME280;56128;37.534;-122.308;2024-02-26T09:39:13;101619.09;;;9.52;100.00
69058;BME280;56128;37.534;-122.308;2024-02-26T09:41:40;101610.16;;;9.53;100.00
69058;BME280;56128;37.534;-122.308;2024-02-26T09:44:07;101606.53;;;9.54;100.00
69058;BME280;56128;37.534;-122.308;2024-02-26T09:46:35;101605.59;;;9.55;100.00
69058;BME280;56128;37.534;-122.308;2024-02-26T09:49:01;101597.56;;;9.55;100.00
69058;BME280;56128;37.534;-122.308;2024-02-26T09:51:28;101608.16;;;9.57;100.00
69058;BME280;56128;37.534;-122.308;2024-02-26T09:53:54;101603.75;;;9.56;100.00
69058;BME280;56128;37.534;-122.308;2024-02-26T09:56:22;101597.47;;;9.57;100.00
69058;BME280;56128;37.534;-122.308;2024-02-26T09:58:49;101593.94;;;9.56;100.00
69058;BME280;56128;37.534;-122.308;2024-02-26T10:01:20;101595.75;;;9.56;100.00
69058;BME280;56128;37.534;-122.308;2024-02-26T10:03:52;101601.09;;;9.56;100.00
69058;BME280;56128;37.534;-122.308;2024-02-26T10:06:21;101594.69;;;9.58;100.00
69058;BME280;56128;37.534;-122.308;2024-02-26T10:08:47;101578.66;;;9.58;100.00
69058;BME280;56128;37.534;-122.308;2024-02-26T10:11:15;101581.28;;;9.60;100.00
69058;BME280;56128;37.534;-122.308;2024-02-26T10:13:41;101581.06;;;9.63;100.00
69058;BME280;56128;37.534;-122.308;2024-02-26T10:16:08;101586.41;;;9.63;100.00
69058;BME280;56128;37.534;-122.308;2024-02-26T10:18:50;101578.16;;;9.68;100.00
69058;BME280;56128;37.534;-122.308;2024-02-26T10:21:17;101574.53;;;9.69;100.00
69058;BME280;56128;37.534;-122.308;2024-02-26T10:23:46;101570.72;;;9.73;100.00
69058;BME280;56128;37.534;-122.308;2024-02-26T10:26:16;101573.19;;;9.76;100.00
69058;BME280;56128;37.534;-122.308;2024-02-26T10:28:44;101573.97;;;9.78;100.00
69058;BME280;56128;37.534;-122.308;2024-02-26T10:31:11;101568.53;;;9.80;100.00
69058;BME280;56128;37.534;-122.308;2024-02-26T10:33:39;101559.75;;;9.78;100.00
69058;BME280;56128;37.534;-122.308;2024-02-26T10:36:06;101559.66;;;9.79;100.00
69058;BME280;56128;37.534;-122.308;2024-02-26T10:38:37;101559.44;;;9.82;100.00
69058;BME280;56128;37.534;-122.308;2024-02-26T10:41:04;101551.38;;;9.84;100.00
69058;BME280;56128;37.534;-122.308;2024-02-26T10:43:31;101548.50;;;9.87;100.00
69058;BME280;56128;37.534;-122.308;2024-02-26T10:45:58;101547.66;;;9.86;100.00
69058;BME280;56128;37.534;-122.308;2024-02-26T10:48:24;101548.59;;;9.85;100.00
69058;BME280;56128;37.534;-122.308;2024-02-26T10:50:51;101543.25;;;9.85;100.00
69058;BME280;56128;37.534;-122.308;2024-02-26T10:53:21;101543.25;;;9.85;100.00
69058;BME280;56128;37.534;-122.308;2024-02-26T10:56:02;101540.66;;;9.84;100.00
69058;BME280;56128;37.534;-122.308;2024-02-26T10:58:29;101542.38;;;9.85;100.00
69058;BME280;56128;37.534;-122.308;2024-02-26T11:00:57;101554.78;;;9.86;100.00
69058;BME280;56128;37.534;-122.308;2024-02-26T11:03:25;101550.31;;;9.86;100.00
69058;BME280;56128;37.534;-122.308;2024-02-26T11:05:51;101552.00;;;9.87;100.00
69058;BME280;56128;37.534;-122.308;2024-02-26T11:08:21;101558.22;;;9.88;100.00
69058;BME280;56128;37.534;-122.308;2024-02-26T11:10:52;101555.56;;;9.88;100.00
69058;BME280;56128;37.534;-122.308;2024-02-26T11:13:19;101554.69;;;9.87;100.00
69058;BME280;56128;37.534;-122.308;2024-02-26T11:15:47;101555.28;;;9.93;100.00
69058;BME280;56128;37.534;-122.308;2024-02-26T11:18:19;101550.13;;;9.89;100.00
69058;BME280;56128;37.534;-122.308;2024-02-26T11:20:46;101550.88;;;9.91;100.00
69058;BME280;56128;37.534;-122.308;2024-02-26T11:23:12;101558.72;;;9.95;100.00
69058;BME280;56128;37.534;-122.308;2024-02-26T11:25:38;101563.31;;;9.93;100.00
69058;BME280;56128;37.534;-122.308;2024-02-26T11:28:14;101562.53;;;9.90;100.00
69058;BME280;56128;37.534;-122.308;2024-02-26T11:30:44;101555.47;;;9.89;100.00
69058;BME280;56128;37.534;-122.308;2024-02-26T11:33:11;101559.09;;;9.88;100.00
69058;BME280;56128;37.534;-122.308;2024-02-26T11:35:39;101560.31;;;9.83;100.00
69058;BME280;56128;37.534;-122.308;2024-02-26T11:38:05;101562.13;;;9.82;100.00
69058;BME280;56128;37.534;-122.308;2024-02-26T11:40:37;101557.56;;;9.84;100.00
69058;BME280;56128;37.534;-122.308;2024-02-26T11:43:08;101563.59;;;9.88;100.00
69058;BME280;56128;37.534;-122.308;2024-02-26T11:48:13;101558.91;;;9.91;100.00
69058;BME280;56128;37.534;-122.308;2024-02-26T11:50:40;101558.81;;;9.93;100.00
69058;BME280;56128;37.534;-122.308;2024-02-26T11:53:26;101568.47;;;9.96;100.00
69058;BME280;56128;37.534;-122.308;2024-02-26T11:58:41;101567.50;;;9.97;100.00
69058;BME280;56128;37.534;-122.308;2024-02-26T12:04:13;101535.06;;;10.03;100.00
69058;BME280;56128;37.534;-122.308;2024-02-26T12:06:54;101540.28;;;10.04;100.00
69058;BME280;56128;37.534;-122.308;2024-02-26T12:09:38;101542.97;;;10.04;100.00
69058;BME280;56128;37.534;-122.308;2024-02-26T12:12:09;101549.00;;;10.08;100.00
69058;BME280;56128;37.534;-122.308;2024-02-26T12:14:41;101540.69;;;10.13;100.00
69058;BME280;56128;37.534;-122.308;2024-02-26T12:17:20;101549.56;;;10.13;100.00
69058;BME280;56128;37.534;-122.308;2024-02-26T12:19:47;101532.56;;;10.14;100.00
69058;BME280;56128;37.534;-122.308;2024-02-26T12:22:14;101532.38;;;10.17;100.00